Time;durP1;ratioP1;P1;durP2;ratioP2;P2;SDS_P1;SDS_P2;PMS_P1;PMS_P2;Temp;Humidity;BMP_temperature;BMP_pressure;BME280_temperature;BME280_humidity;BME280_pressure;Samples;Min_cycle;Max_cycle;Signal;HPM_P1;HPM_P2
2021/06/16 00:01:15;;;;;;;9.15;6.18;;;20.50;83.70;;;;;;5084125;28;20513;-81
2021/06/16 00:03:41;;;;;;;8.68;5.45;;;20.50;83.70;;;;;;5078727;28;20029;-81
2021/06/16 00:06:06;;;;;;;8.15;5.50;;;20.50;83.40;;;;;;5074319;28;20035;-81
2021/06/16 00:08:32;;;;;;;7.05;5.25;;;20.50;83.50;;;;;;5075088;28;20025;-81
2021/06/16 00:10:58;;;;;;;6.18;4.60;;;20.60;83.50;;;;;;5076099;28;20025;-81
2021/06/16 00:13:24;;;;;;;6.30;4.50;;;20.60;83.30;;;;;;5080838;28;20436;-80
2021/06/16 00:15:51;;;;;;;5.65;3.85;;;20.50;83.10;;;;;;5079430;28;20033;-80
2021/06/16 00:18:16;;;;;;;6.25;3.40;;;20.50;82.70;;;;;;5075241;28;20371;-81
2021/06/16 00:20:42;;;;;;;5.68;3.38;;;20.50;82.70;;;;;;5076181;28;20040;-80
2021/06/16 00:23:08;;;;;;;5.22;3.33;;;20.50;82.60;;;;;;5075897;28;20024;-80
2021/06/16 00:25:35;;;;;;;3.75;3.08;;;20.50;82.60;;;;;;5073908;28;20116;-81
2021/06/16 00:28:01;;;;;;;3.55;2.95;;;20.50;82.50;;;;;;5073921;28;20085;-80
2021/06/16 00:30:27;;;;;;;4.28;2.70;;;20.50;82.50;;;;;;5073768;28;20039;-80
2021/06/16 00:32:54;;;;;;;5.13;3.22;;;20.50;82.50;;;;;;5073705;28;20029;-80
2021/06/16 00:35:20;;;;;;;4.10;3.33;;;20.50;82.50;;;;;;5075058;28;20492;-81
2021/06/16 00:37:50;;;;;;;5.15;3.45;;;20.40;82.60;;;;;;5079396;28;20025;-80
2021/06/16 00:40:19;;;;;;;3.53;3.22;;;20.40;82.90;;;;;;5073471;28;20116;-81
2021/06/16 00:42:45;;;;;;;6.85;4.22;;;20.40;82.60;;;;;;5086115;28;20017;-80
2021/06/16 00:45:12;;;;;;;6.05;3.35;;;20.40;82.60;;;;;;5077431;28;20031;-80
2021/06/16 00:47:40;;;;;;;4.72;3.38;;;20.40;82.80;;;;;;5075073;28;20024;-81
2021/06/16 00:50:10;;;;;;;4.45;3.65;;;20.40;82.70;;;;;;5074735;28;20060;-80
2021/06/16 00:52:36;;;;;;;5.80;3.80;;;20.40;83.20;;;;;;5074007;28;20032;-80
2021/06/16 00:55:03;;;;;;;5.97;3.78;;;20.40;83.40;;;;;;5073705;28;20028;-80
2021/06/16 00:57:30;;;;;;;6.07;3.60;;;20.40;83.20;;;;;;5073462;28;20162;-80
2021/06/16 01:00:04;;;;;;;6.38;3.85;;;20.40;83.10;;;;;;5073307;28;20033;-80
2021/06/16 01:02:35;;;;;;;4.03;3.63;;;20.30;83.00;;;;;;5073065;28;20056;-78
2021/06/16 01:05:01;;;;;;;4.00;3.70;;;20.30;82.90;;;;;;5072973;28;20052;-80
2021/06/16 01:07:32;;;;;;;4.70;3.80;;;20.30;82.90;;;;;;5072568;28;20526;-78
2021/06/16 01:10:04;;;;;;;4.28;3.38;;;20.20;82.80;;;;;;5074952;28;20130;-80
2021/06/16 01:13:00;;;;;;;4.65;3.80;;;20.20;83.10;;;;;;5076913;28;20031;-80
2021/06/16 01:15:32;;;;;;;5.22;3.90;;;20.10;83.20;;;;;;5077100;28;20032;-80
2021/06/16 01:18:01;;;;;;;6.97;3.90;;;20.10;83.30;;;;;;5076379;28;20025;-80
2021/06/16 01:20:36;;;;;;;6.60;4.10;;;20.10;83.40;;;;;;5093366;28;20032;-80
2021/06/16 01:23:08;;;;;;;4.80;4.07;;;20.10;83.90;;;;;;5088318;28;20040;-80
2021/06/16 01:25:57;;;;;;;4.32;3.80;;;20.00;84.00;;;;;;5076866;28;20029;-80
2021/06/16 01:28:25;;;;;;;5.22;4.05;;;20.00;84.10;;;;;;5093665;28;20466;-80
2021/06/16 01:30:51;;;;;;;4.13;3.65;;;19.90;84.00;;;;;;5096920;28;20058;-80
2021/06/16 01:33:18;;;;;;;4.65;3.42;;;19.90;84.20;;;;;;5096289;28;20389;-80
2021/06/16 01:35:47;;;;;;;5.22;3.53;;;19.90;84.30;;;;;;5095425;28;20055;-80
2021/06/16 01:38:17;;;;;;;5.55;3.70;;;19.90;84.50;;;;;;5112238;28;20113;-80
2021/06/16 01:40:45;;;;;;;3.47;3.17;;;19.90;84.40;;;;;;5096533;28;20032;-80
2021/06/16 01:43:12;;;;;;;3.70;3.40;;;19.80;84.20;;;;;;5095147;28;20111;-80
2021/06/16 01:45:40;;;;;;;5.22;4.07;;;19.80;84.40;;;;;;5096959;28;20077;-80
2021/06/16 01:48:12;;;;;;;5.00;3.75;;;19.80;84.60;;;;;;5096486;28;20028;-80
2021/06/16 01:50:40;;;;;;;6.28;3.55;;;19.80;84.80;;;;;;5096794;28;20036;-80
2021/06/16 01:53:07;;;;;;;5.65;4.05;;;19.80;85.00;;;;;;5096824;28;20035;-80
2021/06/16 01:55:33;;;;;;;4.32;3.92;;;19.80;85.30;;;;;;5096708;28;20020;-80
2021/06/16 01:58:01;;;;;;;5.28;4.35;;;19.80;85.50;;;;;;5096386;28;20492;-80
2021/06/16 02:00:27;;;;;;;6.07;4.13;;;19.70;85.70;;;;;;5095934;28;20031;-80
2021/06/16 02:02:55;;;;;;;5.00;4.05;;;19.70;85.90;;;;;;5096247;28;20032;-80
2021/06/16 02:05:23;;;;;;;4.82;3.97;;;19.70;86.20;;;;;;5095867;28;20084;-80
2021/06/16 02:08:20;;;;;;;4.80;4.40;;;19.70;86.30;;;;;;5096251;28;20039;-80
2021/06/16 02:10:49;;;;;;;5.03;4.18;;;19.70;86.40;;;;;;5086267;28;20069;-80
2021/06/16 02:13:32;;;;;;;5.32;4.03;;;19.70;86.30;;;;;;5096106;28;20028;-80
2021/06/16 02:16:13;;;;;;;4.30;3.90;;;19.70;86.50;;;;;;5095970;28;20024;-80
2021/06/16 02:19:02;;;;;;;4.78;3.88;;;19.60;86.30;;;;;;5095831;28;20052;-80
2021/06/16 02:21:28;;;;;;;4.28;3.88;;;19.70;86.30;;;;;;5094509;28;20057;-80
2021/06/16 02:23:54;;;;;;;4.60;3.90;;;19.70;86.20;;;;;;5095427;28;20382;-80
2021/06/16 02:26:21;;;;;;;4.97;3.63;;;19.70;85.80;;;;;;5095206;28;20031;-80
2021/06/16 02:28:47;;;;;;;4.93;3.53;;;19.80;85.90;;;;;;5095702;28;20454;-80
2021/06/16 02:31:13;;;;;;;5.15;4.10;;;19.80;85.80;;;;;;5094075;28;20102;-80
2021/06/16 02:33:39;;;;;;;3.65;3.35;;;19.80;85.50;;;;;;5095481;28;20111;-80
2021/06/16 02:36:06;;;;;;;4.38;3.97;;;19.80;85.40;;;;;;5095634;28;20102;-80
2021/06/16 02:38:34;;;;;;;5.13;3.90;;;19.90;85.50;;;;;;5095712;28;20020;-80
2021/06/16 02:41:02;;;;;;;5.35;3.65;;;19.90;85.50;;;;;;5094303;28;20073;-80
2021/06/16 02:43:28;;;;;;;5.28;3.65;;;19.90;85.40;;;;;;5095566;28;20023;-80
2021/06/16 02:45:57;;;;;;;8.45;3.63;;;20.00;85.30;;;;;;5095269;28;20370;-80
2021/06/16 02:48:24;;;;;;;4.40;3.83;;;20.00;85.20;;;;;;5094995;28;20386;-80
2021/06/16 02:50:51;;;;;;;5.80;3.80;;;20.10;85.10;;;;;;5095210;28;20501;-80
2021/06/16 02:53:22;;;;;;;4.53;3.75;;;20.10;85.00;;;;;;5095038;28;20035;-80
2021/06/16 02:55:49;;;;;;;4.28;3.45;;;20.20;84.90;;;;;;5111188;28;20044;-80
2021/06/16 02:58:17;;;;;;;5.75;3.72;;;20.30;84.70;;;;;;5095021;28;20113;-80
2021/06/16 03:00:51;;;;;;;4.95;3.63;;;20.30;84.20;;;;;;5095248;28;20132;-80
2021/06/16 03:03:20;;;;;;;5.95;3.33;;;20.30;83.80;;;;;;5095097;28;20089;-80
2021/06/16 03:05:48;;;;;;;4.65;3.30;;;20.30;83.70;;;;;;5095232;28;20024;-80
2021/06/16 03:08:14;;;;;;;7.13;3.58;;;20.30;83.60;;;;;;5095130;28;20097;-80
2021/06/16 03:10:41;;;;;;;3.60;3.00;;;20.40;83.50;;;;;;5094876;28;20024;-80
2021/06/16 03:13:07;;;;;;;3.65;3.35;;;20.30;83.40;;;;;;5094834;28;20052;-80
2021/06/16 03:15:34;;;;;;;3.70;3.03;;;20.40;83.40;;;;;;5095150;28;20454;-80
2021/06/16 03:18:01;;;;;;;4.10;2.85;;;20.40;83.30;;;;;;5105034;28;20032;-79
2021/06/16 03:20:29;;;;;;;3.10;2.80;;;20.50;82.90;;;;;;5089202;28;20036;-80
2021/06/16 03:22:56;;;;;;;3.05;2.70;;;20.50;82.70;;;;;;5074111;28;20055;-80
2021/06/16 03:25:22;;;;;;;3.00;2.78;;;20.60;82.70;;;;;;5074117;28;20017;-80
2021/06/16 03:27:50;;;;;;;4.68;3.28;;;20.60;82.40;;;;;;5074421;28;20036;-80
2021/06/16 03:30:19;;;;;;;2.60;2.40;;;20.70;82.50;;;;;;5073128;28;20039;-80
2021/06/16 03:32:46;;;;;;;3.10;2.60;;;20.80;82.30;;;;;;5070230;28;20032;-79
2021/06/16 03:35:12;;;;;;;4.13;2.70;;;20.90;82.50;;;;;;5062166;28;20482;-79
2021/06/16 03:37:38;;;;;;;2.88;2.67;;;21.00;81.50;;;;;;5063668;28;20095;-80
2021/06/16 03:40:06;;;;;;;2.70;2.50;;;21.10;81.10;;;;;;5062524;28;20037;-80
2021/06/16 03:42:36;;;;;;;3.45;2.85;;;21.20;80.60;;;;;;5064550;28;20053;-80
2021/06/16 03:45:06;;;;;;;4.03;2.83;;;21.30;80.20;;;;;;5061985;28;20470;-79
2021/06/16 03:47:32;;;;;;;3.63;3.00;;;21.40;80.20;;;;;;5062363;28;20405;-80
2021/06/16 03:50:01;;;;;;;3.30;2.85;;;21.40;79.90;;;;;;5063447;28;20062;-81
2021/06/16 03:52:28;;;;;;;3.20;2.78;;;21.50;79.80;;;;;;5062975;28;20028;-81
2021/06/16 03:54:54;;;;;;;4.07;3.22;;;21.50;79.50;;;;;;5061296;28;20029;-80
2021/06/16 03:57:21;;;;;;;3.10;2.80;;;21.50;79.30;;;;;;5062731;28;20024;-81
2021/06/16 03:59:51;;;;;;;3.33;3.03;;;21.50;79.20;;;;;;5061737;28;20430;-80
2021/06/16 04:02:18;;;;;;;3.10;2.90;;;21.50;79.00;;;;;;5063724;28;20028;-81
2021/06/16 04:04:45;;;;;;;3.65;3.35;;;21.50;78.90;;;;;;5063148;28;20020;-82
2021/06/16 04:07:15;;;;;;;4.00;3.25;;;21.50;79.10;;;;;;5062756;28;20107;-80
2021/06/16 04:09:41;;;;;;;3.50;3.20;;;21.40;79.20;;;;;;5061512;28;20036;-80
2021/06/16 04:12:09;;;;;;;3.50;3.20;;;21.40;79.20;;;;;;5062795;28;20106;-81
2021/06/16 04:14:35;;;;;;;3.80;3.40;;;21.40;79.20;;;;;;5063347;28;20025;-80
2021/06/16 04:17:01;;;;;;;3.47;3.17;;;21.40;79.40;;;;;;5064265;28;20033;-80
2021/06/16 04:19:27;;;;;;;5.72;4.35;;;21.40;79.50;;;;;;5062183;28;20029;-81
2021/06/16 04:21:52;;;;;;;4.07;3.67;;;21.40;79.70;;;;;;5061307;28;20028;-80
2021/06/16 04:24:18;;;;;;;3.85;3.30;;;21.40;79.60;;;;;;5060693;28;20025;-80
2021/06/16 04:26:44;;;;;;;4.63;3.60;;;21.30;79.50;;;;;;5062684;28;20021;-80
2021/06/16 04:29:09;;;;;;;4.15;3.75;;;21.40;79.60;;;;;;5062481;28;20078;-80
2021/06/16 04:31:36;;;;;;;5.50;3.85;;;21.40;79.70;;;;;;5061483;28;20538;-80
2021/06/16 04:34:01;;;;;;;4.15;3.75;;;21.40;79.70;;;;;;5063155;28;20120;-80
2021/06/16 04:36:27;;;;;;;6.03;3.78;;;21.40;79.70;;;;;;5063001;28;20091;-80
2021/06/16 04:38:53;;;;;;;5.20;3.85;;;21.40;79.60;;;;;;5063003;28;20036;-80
2021/06/16 04:41:18;;;;;;;3.65;3.35;;;21.50;79.60;;;;;;5060680;28;20029;-80
2021/06/16 04:43:44;;;;;;;4.20;3.80;;;21.50;79.50;;;;;;5062575;28;20069;-81
2021/06/16 04:46:10;;;;;;;4.93;3.08;;;21.60;79.60;;;;;;5059289;28;20108;-81
2021/06/16 04:48:36;;;;;;;3.88;3.40;;;21.80;79.50;;;;;;5057412;28;20032;-80
2021/06/16 04:51:01;;;;;;;3.90;3.50;;;21.90;79.30;;;;;;5060272;28;20025;-79
2021/06/16 04:53:28;;;;;;;4.13;3.70;;;22.10;79.10;;;;;;5056732;28;20105;-80
2021/06/16 04:55:53;;;;;;;4.13;3.72;;;22.20;78.60;;;;;;5057121;28;20072;-77
2021/06/16 04:58:19;;;;;;;3.75;3.05;;;22.40;78.10;;;;;;5056799;28;20072;-80
2021/06/16 05:00:45;;;;;;;4.90;3.50;;;22.50;77.50;;;;;;5056002;28;20029;-81
2021/06/16 05:03:10;;;;;;;3.58;3.28;;;22.60;77.00;;;;;;5057079;28;20036;-80
2021/06/16 05:05:36;;;;;;;3.28;3.08;;;22.70;76.60;;;;;;5061341;28;20115;-80
2021/06/16 05:08:02;;;;;;;3.85;3.45;;;22.80;76.10;;;;;;5064335;28;20033;-79
2021/06/16 05:10:28;;;;;;;4.35;3.63;;;22.80;75.70;;;;;;5067303;28;20103;-79
2021/06/16 05:12:53;;;;;;;5.82;3.65;;;22.90;75.50;;;;;;5066795;28;20104;-80
2021/06/16 05:15:19;;;;;;;3.00;2.78;;;23.00;75.40;;;;;;5064369;28;20029;-80
2021/06/16 05:17:45;;;;;;;3.63;3.28;;;23.00;75.00;;;;;;5067505;28;20027;-81
2021/06/16 05:20:13;;;;;;;4.38;3.70;;;23.00;74.70;;;;;;5060597;28;20119;-80
2021/06/16 05:22:39;;;;;;;3.33;3.08;;;23.10;74.40;;;;;;5055558;28;20056;-80
2021/06/16 05:25:08;;;;;;;3.67;3.38;;;23.10;74.30;;;;;;5057130;28;20036;-80
2021/06/16 05:27:34;;;;;;;3.97;3.60;;;23.10;74.10;;;;;;5056916;28;20491;-80
2021/06/16 05:30:04;;;;;;;3.95;3.47;;;23.20;74.20;;;;;;5055156;28;20060;-80
2021/06/16 05:32:30;;;;;;;3.70;3.35;;;23.10;73.80;;;;;;5055864;28;20463;-80
2021/06/16 05:34:56;;;;;;;4.47;3.45;;;23.10;73.80;;;;;;5056556;28;20037;-80
2021/06/16 05:37:22;;;;;;;3.83;3.28;;;23.20;73.90;;;;;;5056125;28;20029;-79
2021/06/16 05:39:49;;;;;;;5.95;4.18;;;23.20;73.70;;;;;;5056156;28;20029;-79
2021/06/16 05:42:14;;;;;;;3.60;3.30;;;23.20;73.80;;;;;;5056016;28;20033;-79
2021/06/16 05:44:40;;;;;;;4.55;3.80;;;23.30;73.70;;;;;;5056733;28;20103;-81
2021/06/16 05:47:06;;;;;;;5.68;3.50;;;23.40;73.50;;;;;;5056270;28;20455;-80
2021/06/16 05:49:31;;;;;;;5.90;3.47;;;23.50;73.40;;;;;;5056308;28;20047;-81
2021/06/16 05:51:57;;;;;;;4.93;3.80;;;23.70;73.10;;;;;;5064159;28;20052;-80
2021/06/16 05:54:23;;;;;;;4.68;3.85;;;23.90;72.90;;;;;;5074156;28;20025;-81
2021/06/16 05:56:50;;;;;;;5.55;3.78;;;24.10;72.50;;;;;;5056023;28;20029;-80
2021/06/16 05:59:16;;;;;;;4.03;3.60;;;24.20;72.10;;;;;;5056287;28;20033;-81
2021/06/16 06:01:42;;;;;;;4.00;3.60;;;24.40;71.60;;;;;;5056287;28;20037;-80
2021/06/16 06:04:07;;;;;;;4.22;3.80;;;24.50;71.10;;;;;;5056086;28;20467;-79
2021/06/16 06:06:34;;;;;;;4.05;3.70;;;24.60;70.70;;;;;;5055941;28;20060;-81
2021/06/16 06:09:01;;;;;;;5.45;3.47;;;24.70;70.40;;;;;;5055966;28;20031;-81
2021/06/16 06:11:26;;;;;;;5.30;3.50;;;24.80;70.10;;;;;;5055447;28;20395;-79
2021/06/16 06:13:52;;;;;;;4.13;3.67;;;24.90;69.90;;;;;;5055683;28;20025;-81
2021/06/16 06:16:19;;;;;;;4.00;3.60;;;25.10;69.70;;;;;;5055536;28;20025;-80
2021/06/16 06:18:44;;;;;;;4.50;3.90;;;25.20;69.20;;;;;;5055709;28;20498;-81
2021/06/16 06:21:10;;;;;;;4.30;3.90;;;25.40;68.80;;;;;;5054613;28;20025;-80
2021/06/16 06:23:37;;;;;;;4.18;3.72;;;25.50;68.50;;;;;;5056078;28;20048;-81
2021/06/16 06:26:03;;;;;;;4.05;3.60;;;25.60;67.80;;;;;;5055725;28;20052;-80
2021/06/16 06:28:28;;;;;;;4.50;3.67;;;25.70;67.40;;;;;;5055491;28;20025;-81
2021/06/16 06:30:54;;;;;;;4.38;3.88;;;25.70;67.20;;;;;;5067066;28;20020;-81
2021/06/16 06:33:20;;;;;;;5.10;3.88;;;25.80;66.90;;;;;;5088562;28;20032;-81
2021/06/16 06:35:45;;;;;;;4.68;4.18;;;25.80;66.60;;;;;;5076394;28;20031;-80
2021/06/16 06:38:13;;;;;;;6.13;4.30;;;25.90;66.70;;;;;;5075416;28;20504;-80
2021/06/16 06:40:40;;;;;;;5.78;3.97;;;26.00;66.60;;;;;;5075120;28;20036;-80
2021/06/16 06:43:06;;;;;;;4.78;4.38;;;26.00;66.20;;;;;;5073908;28;20035;-81
2021/06/16 06:45:31;;;;;;;4.25;3.85;;;26.00;66.30;;;;;;5074995;28;20020;-81
2021/06/16 06:47:57;;;;;;;6.05;4.70;;;26.10;66.40;;;;;;5075293;28;20032;-80
2021/06/16 06:50:23;;;;;;;7.18;4.13;;;26.10;66.00;;;;;;5075076;28;20071;-81
2021/06/16 06:52:49;;;;;;;5.03;4.30;;;26.10;66.00;;;;;;5074694;28;20103;-81
2021/06/16 06:55:16;;;;;;;4.75;4.28;;;26.20;65.90;;;;;;5074789;28;20469;-80
2021/06/16 06:57:42;;;;;;;4.60;4.20;;;26.30;65.90;;;;;;5073519;28;20482;-80
2021/06/16 07:00:10;;;;;;;4.60;3.88;;;26.40;66.10;;;;;;5075055;28;20178;-80
2021/06/16 07:02:35;;;;;;;5.25;4.13;;;26.50;65.60;;;;;;5075035;28;20025;-81
2021/06/16 07:05:01;;;;;;;5.18;4.25;;;26.70;65.30;;;;;;5065692;28;20039;-81
2021/06/16 07:07:27;;;;;;;4.00;3.70;;;26.70;64.80;;;;;;5063775;28;20027;-80
2021/06/16 07:09:53;;;;;;;5.18;4.25;;;26.80;64.80;;;;;;5062904;28;20368;-81
2021/06/16 07:12:19;;;;;;;4.30;3.85;;;26.90;64.60;;;;;;5061308;28;20024;-80
2021/06/16 07:14:45;;;;;;;5.05;4.18;;;27.00;64.20;;;;;;5061886;28;20032;-80
2021/06/16 07:17:11;;;;;;;6.07;4.30;;;27.10;63.90;;;;;;5064338;28;20021;-80
2021/06/16 07:19:36;;;;;;;4.28;3.70;;;27.20;63.70;;;;;;5062798;28;20108;-79
2021/06/16 07:22:03;;;;;;;4.80;4.15;;;27.30;63.60;;;;;;5062473;28;20036;-80
2021/06/16 07:24:29;;;;;;;6.28;4.15;;;27.30;63.50;;;;;;5062580;28;20032;-79
2021/06/16 07:26:55;;;;;;;6.20;4.43;;;27.40;63.30;;;;;;5063467;28;20030;-80
2021/06/16 07:29:22;;;;;;;5.22;4.72;;;27.50;63.30;;;;;;5063745;28;20033;-81
2021/06/16 07:31:48;;;;;;;5.35;4.85;;;27.60;63.30;;;;;;5062247;28;20463;-81
2021/06/16 07:34:14;;;;;;;4.95;4.55;;;27.70;63.00;;;;;;5063638;28;20032;-80
2021/06/16 07:36:40;;;;;;;4.65;4.20;;;27.70;62.70;;;;;;5063323;28;20025;-82
2021/06/16 07:39:06;;;;;;;7.00;4.55;;;27.90;62.80;;;;;;5061441;28;20033;-80
2021/06/16 07:41:32;;;;;;;4.95;4.50;;;28.00;62.50;;;;;;5062049;28;20021;-80
2021/06/16 07:43:58;;;;;;;5.72;4.95;;;28.10;62.90;;;;;;5062941;28;20370;-80
2021/06/16 07:46:24;;;;;;;5.93;4.45;;;28.10;62.00;;;;;;5061115;28;20036;-80
2021/06/16 07:48:50;;;;;;;5.28;4.50;;;28.20;61.90;;;;;;5063057;28;20032;-81
2021/06/16 07:51:17;;;;;;;5.40;4.15;;;28.30;61.50;;;;;;5060627;28;20021;-80
2021/06/16 07:53:43;;;;;;;5.00;4.60;;;28.40;61.40;;;;;;5060416;28;20033;-80
2021/06/16 07:56:09;;;;;;;6.25;4.18;;;28.50;61.20;;;;;;5062809;28;20065;-80
2021/06/16 07:58:35;;;;;;;6.85;4.10;;;28.60;61.00;;;;;;5061258;28;20128;-81
2021/06/16 08:01:01;;;;;;;5.32;4.40;;;28.60;60.80;;;;;;5059779;28;20040;-80
2021/06/16 08:03:27;;;;;;;4.78;4.13;;;28.50;60.80;;;;;;5060224;28;20077;-81
2021/06/16 08:05:54;;;;;;;5.57;4.95;;;28.40;60.70;;;;;;5061790;28;20028;-80
2021/06/16 08:08:21;;;;;;;5.05;4.22;;;28.30;60.90;;;;;;5058658;28;20048;-80
2021/06/16 08:10:46;;;;;;;6.13;4.40;;;28.20;61.10;;;;;;5063011;28;20106;-80
2021/06/16 08:13:12;;;;;;;5.78;5.05;;;28.10;61.20;;;;;;5061458;28;20056;-80
2021/06/16 08:15:38;;;;;;;4.72;4.28;;;28.10;61.20;;;;;;5061885;28;20052;-81
2021/06/16 08:18:04;;;;;;;4.68;4.20;;;28.00;61.10;;;;;;5062217;28;20060;-81
2021/06/16 08:20:30;;;;;;;4.85;4.30;;;27.90;61.20;;;;;;5060418;28;20367;-81
2021/06/16 08:22:56;;;;;;;5.30;4.50;;;27.80;61.40;;;;;;5063282;28;20096;-81
2021/06/16 08:25:22;;;;;;;5.13;4.63;;;27.60;61.60;;;;;;5060963;28;20034;-79
2021/06/16 08:27:50;;;;;;;5.00;4.57;;;27.60;62.00;;;;;;5066738;28;20450;-79
2021/06/16 08:30:17;;;;;;;5.97;4.55;;;27.70;62.30;;;;;;5069892;28;20036;-80
2021/06/16 08:32:43;;;;;;;4.68;4.18;;;28.00;62.00;;;;;;5069713;28;20029;-80
2021/06/16 08:35:10;;;;;;;6.20;4.88;;;28.40;61.80;;;;;;5072831;28;20112;-80
2021/06/16 08:37:36;;;;;;;4.72;4.22;;;28.70;61.30;;;;;;5072458;28;20474;-82
2021/06/16 08:40:05;;;;;;;6.10;4.47;;;29.00;60.50;;;;;;5063823;28;20079;-82
2021/06/16 08:42:30;;;;;;;5.22;4.70;;;29.10;60.10;;;;;;5062491;28;20108;-79
2021/06/16 08:44:57;;;;;;;9.05;4.95;;;29.10;59.90;;;;;;5060778;28;20155;-81
2021/06/16 08:47:24;;;;;;;6.78;4.50;;;29.10;59.70;;;;;;5061012;28;20021;-81
2021/06/16 08:49:51;;;;;;;8.27;4.57;;;29.00;59.60;;;;;;5073481;28;108585;-82
2021/06/16 08:52:18;;;;;;;4.85;4.45;;;29.00;59.50;;;;;;5064715;28;20025;-79
2021/06/16 08:54:44;;;;;;;4.85;4.25;;;29.00;59.40;;;;;;5053319;28;20052;-80
2021/06/16 08:57:10;;;;;;;5.18;4.30;;;29.10;59.60;;;;;;5052190;28;20036;-81
2021/06/16 08:59:36;;;;;;;4.88;4.38;;;29.40;59.60;;;;;;5053170;28;20032;-81
2021/06/16 09:02:02;;;;;;;5.57;4.05;;;29.90;58.90;;;;;;5058782;28;20025;-80
2021/06/16 09:04:49;;;;;;;4.97;4.47;;;30.30;58.20;;;;;;5088229;28;20081;-81
2021/06/16 09:07:31;;;;;;;4.82;4.43;;;30.80;57.70;;;;;;5087533;28;20016;-80
2021/06/16 09:10:16;;;;;;;4.72;4.13;;;31.50;57.00;;;;;;5093204;28;20035;-80
2021/06/16 09:12:54;;;;;;;4.38;3.80;;;31.80;55.80;;;;;;5084260;28;20084;-80
2021/06/16 09:15:22;;;;;;;4.18;3.58;;;32.00;55.40;;;;;;5077569;28;20058;-81
2021/06/16 09:18:05;;;;;;;11.00;3.60;;;32.20;55.10;;;;;;5071509;28;20036;-81
2021/06/16 09:20:34;;;;;;;4.30;3.40;;;32.60;54.00;;;;;;5088443;28;20062;-82
2021/06/16 09:23:27;;;;;;;4.70;3.55;;;33.40;53.50;;;;;;5073261;28;20035;-80
2021/06/16 09:26:10;;;;;;;10.65;3.83;;;34.00;52.10;;;;;;5070287;28;20478;-80
2021/06/16 09:28:41;;;;;;;3.67;3.38;;;34.10;51.50;;;;;;5072904;28;20051;-80
2021/06/16 09:31:09;;;;;;;3.25;3.05;;;34.10;51.60;;;;;;5075158;28;20066;-80
2021/06/16 09:33:35;;;;;;;5.38;3.70;;;34.20;50.80;;;;;;5076080;28;20107;-80
2021/06/16 09:36:08;;;;;;;3.78;3.33;;;34.50;50.20;;;;;;5076055;28;20055;-80
2021/06/16 09:38:34;;;;;;;2.88;2.67;;;34.90;49.60;;;;;;5076286;28;20319;-80
2021/06/16 09:41:01;;;;;;;4.78;3.38;;;35.20;48.50;;;;;;5075856;28;20056;-81
2021/06/16 09:43:29;;;;;;;3.80;3.50;;;34.90;48.20;;;;;;5075863;28;20032;-80
2021/06/16 09:46:00;;;;;;;3.55;3.10;;;34.70;48.40;;;;;;5076387;28;20485;-81
2021/06/16 09:48:33;;;;;;;6.90;3.70;;;35.10;48.20;;;;;;5075860;28;20029;-80
2021/06/16 09:51:26;;;;;;;4.60;3.17;;;35.90;47.90;;;;;;5076111;28;20040;-80
2021/06/16 09:54:21;;;;;;;3.07;2.87;;;36.90;47.20;;;;;;5076223;28;20040;-81
2021/06/16 09:56:59;;;;;;;3.22;3.03;;;37.70;46.40;;;;;;5075958;28;20024;-81
2021/06/16 09:59:36;;;;;;;7.10;3.22;;;38.50;45.50;;;;;;5091823;28;20390;-81
2021/06/16 10:02:02;;;;;;;4.68;3.28;;;39.10;44.70;;;;;;5076430;28;20024;-81
2021/06/16 10:04:54;;;;;;;3.40;3.10;;;39.70;44.10;;;;;;5074693;28;20146;-81
2021/06/16 10:07:22;;;;;;;4.43;3.03;;;40.00;42.90;;;;;;5076180;28;20108;-80
2021/06/16 10:10:00;;;;;;;2.95;2.63;;;40.30;42.50;;;;;;5075696;28;20118;-80
2021/06/16 10:12:28;;;;;;;4.40;2.67;;;40.70;41.10;;;;;;5075899;28;20028;-80
2021/06/16 10:14:56;;;;;;;2.80;2.60;;;41.00;40.80;;;;;;5075657;28;20060;-82
2021/06/16 10:17:22;;;;;;;3.50;2.38;;;41.30;40.40;;;;;;5075546;28;20024;-82
2021/06/16 10:19:49;;;;;;;4.20;3.17;;;41.70;39.80;;;;;;5067893;28;20060;-82
2021/06/16 10:22:16;;;;;;;3.38;3.08;;;41.80;39.40;;;;;;5057692;28;20029;-81
2021/06/16 10:24:42;;;;;;;2.60;2.40;;;41.30;39.10;;;;;;5055233;28;20060;-81
2021/06/16 10:27:24;;;;;;;2.35;2.25;;;40.40;38.90;;;;;;5055655;28;20021;-82
2021/06/16 10:29:52;;;;;;;3.10;2.90;;;39.10;39.00;;;;;;5054210;28;20029;-80
2021/06/16 10:32:19;;;;;;;2.08;1.98;;;37.90;39.90;;;;;;5055076;28;20033;-81
2021/06/16 10:34:54;;;;;;;3.10;2.80;;;36.70;40.40;;;;;;5055098;28;20044;-81
2021/06/16 10:37:41;;;;;;;2.70;2.40;;;35.60;41.30;;;;;;5052702;28;20121;-80
2021/06/16 10:40:28;;;;;;;4.47;2.10;;;34.60;42.30;;;;;;5055006;28;20190;-82
2021/06/16 10:43:03;;;;;;;3.33;2.50;;;33.60;43.60;;;;;;5054007;28;20032;-80
2021/06/16 10:45:34;;;;;;;4.20;2.78;;;32.60;45.30;;;;;;5054928;28;20039;-81
2021/06/16 10:48:05;;;;;;;2.33;2.03;;;31.70;46.40;;;;;;5059656;28;20036;-82
2021/06/16 10:50:46;;;;;;;2.35;2.08;;;31.10;47.00;;;;;;5063932;28;20032;-81
2021/06/16 10:53:15;;;;;;;2.55;2.20;;;30.40;47.60;;;;;;5061931;28;20382;-81
2021/06/16 10:55:57;;;;;;;2.30;2.10;;;29.90;48.30;;;;;;5064448;28;20020;-80
2021/06/16 10:58:42;;;;;;;3.75;2.15;;;29.40;48.80;;;;;;5064780;28;20028;-81
2021/06/16 11:01:19;;;;;;;3.25;2.13;;;29.10;49.70;;;;;;5063000;28;20033;-80
2021/06/16 11:03:48;;;;;;;3.58;2.30;;;28.70;50.00;;;;;;5068057;28;20051;-80
2021/06/16 11:06:32;;;;;;;3.17;2.08;;;28.40;50.80;;;;;;5076961;28;20021;-80
2021/06/16 11:08:58;;;;;;;;;;;28.20;51.60;;;;;;5064867;28;20096;-80
2021/06/16 11:11:49;;;;;;;2.35;2.08;;;28.10;51.20;;;;;;5060844;28;19909;-80
2021/06/16 11:14:33;;;;;;;2.45;2.25;;;28.00;51.70;;;;;;5063878;28;20051;-78
2021/06/16 11:17:10;;;;;;;4.05;2.63;;;28.00;52.30;;;;;;5064543;28;20397;-81
2021/06/16 11:19:36;;;;;;;4.95;2.55;;;28.00;53.00;;;;;;5064192;28;20036;-81
2021/06/16 11:22:24;;;;;;;4.70;2.50;;;27.90;53.70;;;;;;5062469;28;20047;-81
2021/06/16 11:25:08;;;;;;;4.53;2.50;;;27.70;53.90;;;;;;5062933;28;20021;-81
2021/06/16 11:27:52;;;;;;;3.17;2.55;;;27.50;54.80;;;;;;5063569;28;20017;-81
2021/06/16 11:30:36;;;;;;;;;;;27.10;55.90;;;;;;5064759;28;20025;-81
2021/06/16 11:33:20;;;;;;;3.15;2.80;;;26.70;55.40;;;;;;5064076;28;19911;-82
2021/06/16 11:35:50;;;;;;;3.65;2.90;;;26.30;57.70;;;;;;5062886;28;20028;-81
2021/06/16 11:38:19;;;;;;;3.15;2.60;;;25.90;59.00;;;;;;5063594;28;20021;-82
2021/06/16 11:40:57;;;;;;;3.97;2.95;;;25.70;60.30;;;;;;5061264;28;20036;-82
2021/06/16 11:43:38;;;;;;;5.68;2.90;;;25.50;61.20;;;;;;5062842;28;20025;-81
2021/06/16 11:46:06;;;;;;;4.43;3.08;;;25.40;61.60;;;;;;5061925;28;20017;-80
2021/06/16 11:48:32;;;;;;;5.28;2.92;;;25.30;62.20;;;;;;5062664;28;20370;-80
2021/06/16 11:50:58;;;;;;;4.07;2.50;;;25.20;62.80;;;;;;5064144;28;20025;-81
2021/06/16 11:53:32;;;;;;;5.63;2.38;;;25.20;62.80;;;;;;5061107;28;20074;-81
2021/06/16 11:56:06;;;;;;;5.95;3.00;;;25.20;62.90;;;;;;5061635;28;20359;-82
2021/06/16 11:58:35;;;;;;;3.97;2.70;;;25.20;63.30;;;;;;5062755;28;20029;-80
2021/06/16 12:01:27;;;;;;;3.25;2.10;;;25.20;63.50;;;;;;5061450;28;20029;-81
2021/06/16 12:04:00;;;;;;;2.38;2.10;;;25.30;63.20;;;;;;5060350;28;20475;-81
2021/06/16 12:06:26;;;;;;;3.17;2.88;;;25.40;63.10;;;;;;5059892;28;20020;-80
2021/06/16 12:09:01;;;;;;;3.08;2.78;;;25.40;62.80;;;;;;5061211;28;20082;-82
2021/06/16 12:11:34;;;;;;;2.75;2.55;;;25.50;63.10;;;;;;5063235;28;20017;-81
2021/06/16 12:14:02;;;;;;;5.75;2.92;;;25.60;63.30;;;;;;5060670;28;20155;-80
2021/06/16 12:16:36;;;;;;;4.97;2.78;;;25.70;63.30;;;;;;5062778;28;20017;-82
2021/06/16 12:19:16;;;;;;;;;;;25.80;62.20;;;;;;5062023;28;20079;-81
2021/06/16 12:21:51;;;;;;;5.75;2.80;;;25.80;61.60;;;;;;5061831;28;19992;-80
2021/06/16 12:24:22;;;;;;;4.13;2.42;;;25.80;61.30;;;;;;5061373;28;20040;-82
2021/06/16 12:27:11;;;;;;;3.58;2.70;;;25.90;61.10;;;;;;5073603;28;20036;-81
2021/06/16 12:29:53;;;;;;;4.38;3.10;;;26.30;61.20;;;;;;5074063;28;20039;-81
2021/06/16 12:32:43;;;;;;;3.83;2.75;;;27.80;60.50;;;;;;5073568;28;20947;-81
2021/06/16 12:37:50;;;;;;;4.00;2.30;;;31.20;54.80;;;;;;5073482;28;20166;-81
2021/06/16 12:40:17;;;;;;;5.80;2.20;;;32.40;52.40;;;;;;5071794;28;20041;-81
2021/06/16 12:42:45;;;;;;;2.58;2.08;;;33.70;50.70;;;;;;5073262;28;20379;-81
2021/06/16 12:45:33;;;;;;;3.03;2.10;;;34.30;48.10;;;;;;5073448;28;20036;-82
2021/06/16 12:48:21;;;;;;;1.85;1.75;;;34.90;47.00;;;;;;5072246;28;20024;-80
2021/06/16 12:50:59;;;;;;;3.55;2.10;;;35.80;46.10;;;;;;5073877;28;20173;-80
2021/06/16 12:53:26;;;;;;;3.80;2.53;;;37.10;44.80;;;;;;5073043;28;20104;-82
2021/06/16 12:55:55;;;;;;;2.92;2.70;;;37.90;44.20;;;;;;5072989;28;20029;-80
2021/06/16 12:58:22;;;;;;;4.07;2.30;;;38.70;43.50;;;;;;5073184;28;20078;-81
2021/06/16 13:00:53;;;;;;;4.10;2.28;;;39.50;42.60;;;;;;5072293;28;20445;-80
2021/06/16 13:03:22;;;;;;;3.97;2.50;;;40.20;42.20;;;;;;5061078;28;20025;-88